createdAt,value
2017-09-24T00:01:13.230Z,34.27
2017-09-24T00:06:14.533Z,28.43
2017-09-24T00:08:42.029Z,25.90
2017-09-24T00:11:09.521Z,28.37
2017-09-24T00:13:37.045Z,33.10
2017-09-24T00:16:05.305Z,28.40
2017-09-24T00:18:32.833Z,27.60
2017-09-24T00:21:00.353Z,30.90
2017-09-24T00:23:27.845Z,31.20
2017-09-24T00:25:56.129Z,30.17
2017-09-24T00:28:23.665Z,28.30
2017-09-24T00:30:51.174Z,26.80
2017-09-24T00:33:18.663Z,23.80
2017-09-24T00:35:46.186Z,29.30
2017-09-24T00:38:13.679Z,31.03
2017-09-24T00:40:41.205Z,26.53
2017-09-24T00:43:08.738Z,30.07
2017-09-24T00:45:36.245Z,26.10
2017-09-24T00:48:03.774Z,28.57
2017-09-24T00:50:31.268Z,31.97
2017-09-24T00:52:58.753Z,28.03
2017-09-24T00:55:26.280Z,33.40
2017-09-24T00:57:53.769Z,31.13
2017-09-24T01:00:21.310Z,26.93
2017-09-24T01:02:49.586Z,29.30
2017-09-24T01:05:17.091Z,27.07
2017-09-24T01:07:44.643Z,29.87
2017-09-24T01:10:12.901Z,33.40
2017-09-24T01:12:41.188Z,34.13
2017-09-24T01:15:08.685Z,34.80
2017-09-24T01:17:36.226Z,27.47
2017-09-24T01:20:03.730Z,29.23
2017-09-24T01:22:31.231Z,28.93
2017-09-24T01:24:58.761Z,37.87
2017-09-24T01:27:26.250Z,32.20
2017-09-24T01:29:53.745Z,28.53
2017-09-24T01:32:21.265Z,31.10
2017-09-24T01:34:48.764Z,32.60
2017-09-24T01:37:17.082Z,33.07
2017-09-24T01:39:44.578Z,29.87
2017-09-24T01:42:12.070Z,35.90
2017-09-24T01:44:39.609Z,35.13
2017-09-24T01:47:07.097Z,33.00
2017-09-24T01:49:35.357Z,32.00
2017-09-24T01:52:02.889Z,27.83
2017-09-24T01:54:30.390Z,36.00
2017-09-24T01:56:57.919Z,28.93
2017-09-24T01:59:25.417Z,32.37
2017-09-24T02:01:52.930Z,29.70
2017-09-24T02:04:20.458Z,28.70
2017-09-24T02:06:47.949Z,29.43
2017-09-24T02:09:16.210Z,32.90
2017-09-24T02:11:44.501Z,34.30
2017-09-24T02:14:12.014Z,33.47
2017-09-24T02:16:40.322Z,32.70
2017-09-24T02:19:07.810Z,29.10
2017-09-24T02:21:35.315Z,31.93
2017-09-24T02:24:02.850Z,31.53
2017-09-24T02:26:30.345Z,35.17
2017-09-24T02:28:58.703Z,30.83
2017-09-24T02:31:26.212Z,31.90
2017-09-24T02:33:53.745Z,30.37
2017-09-24T02:36:21.247Z,29.07
2017-09-24T02:38:49.506Z,27.33
2017-09-24T02:41:17.813Z,34.70
2017-09-24T02:43:45.305Z,34.63
2017-09-24T02:46:12.861Z,32.20
2017-09-24T02:48:41.117Z,30.57
2017-09-24T02:51:09.382Z,27.53
2017-09-24T02:53:37.693Z,31.53
2017-09-24T02:56:05.185Z,31.60
2017-09-24T02:58:32.684Z,28.63
2017-09-24T03:01:00.222Z,31.13
2017-09-24T03:03:27.723Z,27.20
2017-09-24T03:05:55.977Z,35.27
2017-09-24T03:08:24.277Z,31.27
2017-09-24T03:10:51.778Z,31.87
2017-09-24T03:13:20.041Z,28.23
2017-09-24T03:15:48.337Z,35.80
2017-09-24T03:18:15.836Z,28.00
2017-09-24T03:20:44.123Z,31.77
2017-09-24T03:23:11.651Z,30.37
2017-09-24T03:25:39.922Z,31.93
2017-09-24T03:28:07.459Z,32.70
2017-09-24T03:30:35.748Z,34.77
2017-09-24T03:33:03.253Z,31.00
2017-09-24T03:35:31.546Z,34.73
2017-09-24T03:37:59.050Z,32.17
2017-09-24T03:40:26.553Z,27.50
2017-09-24T03:42:54.077Z,31.70
2017-09-24T03:45:21.574Z,29.33
2017-09-24T03:47:49.081Z,31.70
2017-09-24T03:50:16.606Z,35.40
2017-09-24T03:52:44.101Z,33.70
2017-09-24T03:55:11.639Z,33.80
2017-09-24T03:57:39.140Z,34.60
2017-09-24T04:00:06.634Z,30.80
2017-09-24T04:02:34.162Z,27.77
2017-09-24T04:05:01.661Z,31.53
2017-09-24T04:07:29.189Z,34.13
2017-09-24T04:09:56.713Z,29.00
2017-09-24T04:12:24.217Z,28.50
2017-09-24T04:14:51.744Z,29.43
2017-09-24T04:17:19.238Z,33.40
2017-09-24T04:19:46.738Z,30.30
2017-09-24T04:22:14.260Z,33.07
2017-09-24T04:24:41.745Z,36.00
2017-09-24T04:27:09.282Z,41.30
2017-09-24T04:29:36.777Z,36.60
2017-09-24T04:32:05.037Z,30.07
2017-09-24T04:34:33.321Z,35.40
2017-09-24T04:37:00.813Z,29.67
2017-09-24T04:39:28.389Z,29.53
2017-09-24T04:41:56.645Z,32.30
2017-09-24T04:44:24.902Z,31.73
2017-09-24T04:46:53.192Z,31.60
2017-09-24T04:49:20.689Z,29.40
2017-09-24T04:51:48.214Z,30.30
2017-09-24T04:54:15.711Z,29.83
2017-09-24T04:56:43.209Z,38.73
2017-09-24T04:59:10.746Z,27.07
2017-09-24T05:01:38.246Z,41.37
2017-09-24T05:04:05.784Z,30.97
2017-09-24T05:06:33.301Z,28.23
2017-09-24T05:09:00.802Z,31.93
2017-09-24T05:11:28.339Z,32.20
2017-09-24T05:13:55.833Z,33.87
2017-09-24T05:16:24.085Z,32.53
2017-09-24T05:18:51.601Z,31.30
2017-09-24T05:21:19.113Z,28.73
2017-09-24T05:23:46.644Z,27.00
2017-09-24T05:26:14.135Z,30.47
2017-09-24T05:28:41.632Z,31.10
2017-09-24T05:31:09.154Z,30.93
2017-09-24T05:33:37.412Z,36.13
2017-09-24T05:36:05.706Z,27.73
2017-09-24T05:38:33.203Z,37.50
2017-09-24T05:41:00.697Z,49.70
2017-09-24T05:43:28.241Z,37.03
2017-09-24T05:45:55.736Z,40.03
2017-09-24T05:48:23.234Z,32.93
2017-09-24T05:50:50.761Z,32.43
2017-09-24T05:53:18.254Z,31.93
2017-09-24T05:55:45.802Z,36.67
2017-09-24T05:58:13.310Z,35.07
2017-09-24T06:00:40.818Z,40.83
2017-09-24T06:03:09.121Z,34.30
2017-09-24T06:05:36.629Z,38.73
2017-09-24T06:08:04.163Z,35.87
2017-09-24T06:10:32.461Z,35.93
2017-09-24T06:12:59.966Z,39.40
2017-09-24T06:15:28.251Z,40.87
2017-09-24T06:17:55.744Z,33.00
2017-09-24T06:20:23.326Z,32.50
2017-09-24T06:22:50.825Z,35.77
2017-09-24T06:25:18.329Z,33.63
2017-09-24T06:27:45.890Z,34.17
2017-09-24T06:30:13.454Z,36.00
2017-09-24T06:32:40.950Z,31.63
2017-09-24T06:35:08.552Z,33.83
2017-09-24T06:37:36.073Z,33.73
2017-09-24T06:40:03.598Z,39.20
2017-09-24T06:42:31.137Z,32.80
2017-09-24T06:44:59.461Z,32.90
2017-09-24T06:47:27.764Z,33.07
2017-09-24T06:49:55.263Z,36.90
2017-09-24T06:52:23.559Z,36.93
2017-09-24T06:54:51.086Z,31.90
2017-09-24T06:57:18.585Z,35.23
2017-09-24T06:59:46.126Z,37.33
2017-09-24T07:02:13.630Z,36.57
2017-09-24T07:04:41.134Z,37.97
2017-09-24T07:07:08.665Z,36.73
2017-09-24T07:09:36.223Z,43.60
2017-09-24T07:12:03.776Z,44.83
2017-09-24T07:14:32.042Z,40.23
2017-09-24T07:17:00.304Z,37.73
2017-09-24T07:19:28.620Z,41.43
2017-09-24T07:21:57.895Z,37.10
2017-09-24T07:24:25.615Z,38.07
2017-09-24T07:26:53.350Z,39.17
2017-09-24T07:29:21.025Z,47.93
2017-09-24T07:31:48.748Z,46.63
2017-09-24T07:34:17.242Z,46.40
2017-09-24T07:36:44.844Z,44.30
2017-09-24T07:39:12.393Z,44.23
2017-09-24T07:41:39.890Z,44.47
2017-09-24T07:44:07.430Z,49.10
2017-09-24T07:46:34.954Z,41.47
2017-09-24T07:49:02.474Z,51.10
2017-09-24T07:51:30.067Z,45.20
2017-09-24T07:53:57.570Z,54.03
2017-09-24T07:56:25.841Z,49.30
2017-09-24T07:58:54.153Z,45.13
2017-09-24T08:01:21.648Z,45.10
2017-09-24T08:03:49.169Z,50.00
2017-09-24T08:06:16.706Z,55.37
2017-09-24T08:08:44.230Z,59.40
2017-09-24T08:11:11.767Z,51.53
2017-09-24T08:13:39.265Z,51.60
2017-09-24T08:16:06.805Z,51.70
2017-09-24T08:18:34.337Z,48.97
2017-09-24T08:21:02.628Z,57.50
2017-09-24T08:23:30.176Z,52.40
2017-09-24T08:25:58.437Z,55.27
2017-09-24T08:28:25.940Z,51.40
2017-09-24T08:30:54.228Z,56.30
2017-09-24T08:33:21.721Z,56.30
2017-09-24T08:35:49.264Z,60.40
2017-09-24T08:38:16.781Z,55.30
2017-09-24T08:40:44.280Z,61.73
2017-09-24T08:43:12.583Z,60.13
2017-09-24T08:45:40.086Z,59.13
2017-09-24T08:48:08.374Z,61.30
2017-09-24T08:50:35.914Z,65.63
2017-09-24T08:53:03.420Z,60.67
2017-09-24T08:55:30.987Z,64.27
2017-09-24T08:57:58.513Z,54.30
2017-09-24T09:00:26.010Z,57.70
2017-09-24T09:02:53.605Z,58.77
2017-09-24T09:05:21.143Z,60.33
2017-09-24T09:07:48.637Z,64.33
2017-09-24T09:10:16.169Z,70.13
2017-09-24T09:12:45.538Z,62.33
2017-09-24T09:15:13.839Z,76.60
2017-09-24T09:17:41.345Z,72.67
2017-09-24T09:20:08.842Z,63.40
2017-09-24T09:22:36.392Z,66.03
2017-09-24T09:25:03.909Z,65.67
2017-09-24T09:27:31.414Z,65.60
2017-09-24T09:29:58.939Z,63.33
2017-09-24T09:32:26.481Z,71.37
2017-09-24T09:35:14.739Z,66.50
2017-09-24T09:37:42.350Z,61.47
2017-09-24T09:40:09.855Z,70.23
2017-09-24T09:42:37.381Z,57.90
2017-09-24T09:45:16.760Z,61.37
2017-09-24T09:47:44.289Z,60.90
2017-09-24T09:50:11.813Z,62.40
2017-09-24T09:52:39.339Z,56.37
2017-09-24T09:55:06.874Z,52.47
2017-09-24T09:57:34.381Z,57.93
2017-09-24T10:00:02.728Z,53.60
2017-09-24T10:02:30.205Z,47.93
2017-09-24T10:04:58.469Z,51.20
2017-09-24T10:07:37.688Z,58.00
2017-09-24T10:10:12.036Z,49.43
2017-09-24T10:12:39.554Z,57.10
2017-09-24T10:15:07.050Z,58.67
2017-09-24T10:17:34.594Z,53.10
2017-09-24T10:20:02.111Z,54.67
2017-09-24T10:22:29.613Z,54.43
2017-09-24T10:24:57.142Z,47.63
2017-09-24T10:27:25.408Z,50.03
2017-09-24T10:30:05.375Z,47.03
2017-09-24T10:32:32.913Z,45.23
2017-09-24T10:35:00.413Z,51.90
2017-09-24T10:37:28.683Z,49.57
2017-09-24T10:39:56.993Z,44.43
2017-09-24T10:42:24.501Z,50.20
2017-09-24T10:44:52.013Z,44.93
2017-09-24T10:47:19.541Z,43.93
2017-09-24T10:49:47.066Z,41.67
2017-09-24T10:52:14.565Z,41.93
2017-09-24T10:54:42.829Z,38.60
2017-09-24T10:57:10.393Z,38.97
2017-09-24T10:59:37.899Z,41.53
2017-09-24T11:02:06.191Z,39.90
2017-09-24T11:04:33.745Z,43.23
2017-09-24T11:07:01.247Z,42.47
2017-09-24T11:09:28.750Z,38.63
2017-09-24T11:11:56.286Z,41.33
2017-09-24T11:14:23.808Z,40.60
2017-09-24T11:16:51.334Z,43.70
2017-09-24T11:19:19.636Z,37.97
2017-09-24T11:21:47.145Z,37.20
2017-09-24T11:24:15.418Z,36.10
2017-09-24T11:26:42.941Z,44.70
2017-09-24T11:29:11.204Z,42.97
2017-09-24T11:31:39.505Z,41.53
2017-09-24T11:34:07.035Z,41.00
2017-09-24T11:36:34.546Z,42.00
2017-09-24T11:39:03.062Z,40.90
2017-09-24T11:41:30.582Z,43.70
2017-09-24T11:43:58.106Z,37.60
2017-09-24T11:46:26.357Z,41.50
2017-09-24T11:48:54.586Z,43.87
2017-09-24T11:51:22.109Z,40.83
2017-09-24T11:53:49.601Z,41.60
2017-09-24T11:56:17.896Z,40.53
2017-09-24T11:58:46.956Z,40.73
2017-09-24T12:01:15.218Z,43.67
2017-09-24T12:03:44.746Z,42.10
2017-09-24T12:06:12.246Z,40.43
2017-09-24T12:08:40.505Z,54.83
2017-09-24T12:11:08.819Z,52.60
2017-09-24T12:13:37.950Z,45.70
2017-09-24T12:16:06.258Z,46.87
2017-09-24T12:18:33.756Z,41.50
2017-09-24T12:21:02.038Z,41.03
2017-09-24T12:23:29.557Z,38.57
2017-09-24T12:25:57.817Z,40.30
2017-09-24T12:28:26.117Z,37.27
2017-09-24T12:30:53.625Z,44.27
2017-09-24T12:33:21.905Z,45.00
2017-09-24T12:35:49.437Z,36.60
2017-09-24T12:38:16.982Z,38.70
2017-09-24T12:40:44.541Z,45.00
2017-09-24T12:43:12.045Z,45.70
2017-09-24T12:45:39.543Z,38.30
2017-09-24T12:48:07.076Z,40.10
2017-09-24T12:50:34.587Z,32.77
2017-09-24T12:53:02.899Z,38.07
2017-09-24T12:55:30.402Z,36.53
2017-09-24T12:57:58.665Z,30.23
2017-09-24T13:00:26.969Z,35.20
2017-09-24T13:02:54.473Z,27.90
2017-09-24T13:05:21.974Z,29.50
2017-09-24T13:07:49.499Z,35.43
2017-09-24T13:10:16.993Z,38.00
2017-09-24T13:12:45.280Z,37.70
2017-09-24T13:15:12.788Z,32.90
2017-09-24T13:17:41.058Z,36.63
2017-09-24T13:20:08.614Z,38.83
2017-09-24T13:22:36.129Z,32.00
2017-09-24T13:25:04.405Z,36.87
2017-09-24T13:27:32.710Z,38.77
2017-09-24T13:30:00.257Z,37.93
2017-09-24T13:32:27.755Z,37.83
2017-09-24T13:34:56.120Z,40.10
2017-09-24T13:37:23.625Z,36.97
2017-09-24T13:39:51.149Z,33.70
2017-09-24T13:42:18.667Z,36.40
2017-09-24T13:44:46.210Z,33.63
2017-09-24T13:47:13.726Z,34.57
2017-09-24T13:49:42.025Z,39.40
2017-09-24T13:52:09.571Z,36.00
2017-09-24T13:54:37.073Z,34.30
2017-09-24T13:57:05.366Z,35.53
2017-09-24T13:59:32.920Z,30.10
2017-09-24T14:02:00.427Z,29.67
2017-09-24T14:04:28.695Z,30.70
2017-09-24T14:06:56.246Z,32.20
2017-09-24T14:09:24.562Z,28.43
2017-09-24T14:11:52.066Z,29.83
2017-09-24T14:14:19.575Z,30.60
2017-09-24T14:16:47.870Z,30.70
2017-09-24T14:19:15.374Z,32.20
2017-09-24T14:21:43.674Z,29.30
2017-09-24T14:24:11.177Z,30.30
2017-09-24T14:26:39.470Z,27.60
2017-09-24T14:29:07.038Z,34.00
2017-09-24T14:31:34.556Z,31.63
2017-09-24T14:34:02.065Z,41.83
2017-09-24T14:36:29.604Z,32.80
2017-09-24T14:38:57.101Z,33.00
2017-09-24T14:41:24.661Z,34.07
2017-09-24T14:43:52.164Z,36.37
2017-09-24T14:46:19.666Z,32.73
2017-09-24T14:48:47.195Z,36.13
2017-09-24T14:51:14.731Z,42.40
2017-09-24T14:53:42.286Z,31.13
2017-09-24T14:56:09.790Z,35.13
2017-09-24T14:58:37.293Z,32.83
2017-09-24T15:01:04.843Z,33.93
2017-09-24T15:03:32.337Z,34.13
2017-09-24T15:05:59.837Z,33.80
2017-09-24T15:08:28.138Z,38.30
2017-09-24T15:10:55.646Z,36.27
2017-09-24T15:13:23.941Z,40.40
2017-09-24T15:15:51.437Z,34.50
2017-09-24T15:18:18.964Z,33.17
2017-09-24T15:20:46.481Z,34.43
2017-09-24T15:23:13.978Z,32.30
2017-09-24T15:25:41.511Z,35.20
2017-09-24T15:28:09.009Z,29.13
2017-09-24T15:30:36.523Z,30.40
2017-09-24T15:33:04.103Z,30.87
2017-09-24T15:35:31.592Z,35.23
2017-09-24T15:37:59.085Z,29.17
2017-09-24T15:40:26.621Z,41.63
2017-09-24T15:42:54.118Z,34.00
2017-09-24T15:45:21.617Z,32.73
2017-09-24T15:47:49.146Z,39.13
2017-09-24T15:50:16.647Z,33.97
2017-09-24T15:52:44.186Z,35.37
2017-09-24T15:55:11.681Z,30.47
2017-09-24T15:57:39.178Z,28.37
2017-09-24T16:00:06.717Z,28.63
2017-09-24T16:02:34.239Z,28.83
2017-09-24T16:05:01.733Z,34.70
2017-09-24T16:07:29.277Z,33.73
2017-09-24T16:09:56.766Z,34.40
2017-09-24T16:12:24.266Z,34.00
2017-09-24T16:14:51.865Z,34.27
2017-09-24T16:17:19.353Z,31.23
2017-09-24T16:19:46.850Z,31.70
2017-09-24T16:22:14.400Z,27.90
2017-09-24T16:24:41.913Z,33.10
2017-09-24T16:27:09.416Z,36.33
2017-09-24T16:29:36.969Z,33.23
2017-09-24T16:32:04.464Z,37.50
2017-09-24T16:34:32.029Z,29.20
2017-09-24T16:36:59.554Z,32.17
2017-09-24T16:39:27.077Z,33.37
2017-09-24T16:41:54.615Z,34.63
2017-09-24T16:44:22.128Z,41.73
2017-09-24T16:46:49.668Z,37.67
2017-09-24T16:49:17.221Z,40.20
2017-09-24T16:51:44.753Z,36.93
2017-09-24T16:54:13.041Z,35.43
2017-09-24T16:56:40.557Z,35.10
2017-09-24T16:59:08.839Z,34.70
2017-09-24T17:01:36.345Z,39.20
2017-09-24T17:04:04.665Z,35.83
2017-09-24T17:06:32.193Z,28.83
2017-09-24T17:08:59.689Z,28.60
2017-09-24T17:11:27.241Z,37.40
2017-09-24T17:13:55.523Z,38.50
2017-09-24T17:16:23.029Z,29.60
2017-09-24T17:18:50.567Z,31.10
2017-09-24T17:21:18.072Z,28.27
2017-09-24T17:23:45.598Z,30.43
2017-09-24T17:26:13.901Z,36.07
2017-09-24T17:28:41.414Z,25.77
2017-09-24T17:31:08.913Z,31.50
2017-09-24T17:33:36.454Z,30.80
2017-09-24T17:36:03.957Z,31.60
2017-09-24T17:38:31.546Z,30.93
2017-09-24T17:40:59.086Z,28.67
2017-09-24T17:43:26.597Z,27.60
2017-09-24T17:45:54.102Z,36.17
2017-09-24T17:48:22.526Z,23.23
2017-09-24T17:50:50.090Z,38.93
2017-09-24T17:53:18.401Z,30.57
2017-09-24T17:55:45.950Z,32.17
2017-09-24T17:58:13.470Z,33.37
2017-09-24T18:00:40.996Z,27.37
2017-09-24T18:03:09.262Z,25.57
2017-09-24T18:05:36.796Z,29.73
2017-09-24T18:08:05.062Z,30.07
2017-09-24T18:10:33.376Z,28.30
2017-09-24T18:13:00.875Z,27.00
2017-09-24T18:15:29.209Z,26.93
2017-09-24T18:17:56.762Z,29.53
2017-09-24T18:20:25.037Z,30.40
2017-09-24T18:22:53.325Z,42.47
2017-09-24T18:25:20.841Z,40.47
2017-09-24T18:27:49.152Z,31.90
2017-09-24T18:30:16.648Z,35.10
2017-09-24T18:32:44.952Z,37.93
2017-09-24T18:35:12.454Z,35.07
2017-09-24T18:37:40.001Z,36.73
2017-09-24T18:40:08.281Z,50.60
2017-09-24T18:42:35.814Z,41.83
2017-09-24T18:45:03.467Z,41.33
2017-09-24T18:47:30.977Z,36.63
2017-09-24T18:49:58.478Z,41.07
2017-09-24T18:52:26.030Z,37.43
2017-09-24T18:54:53.540Z,33.70
2017-09-24T18:57:21.054Z,37.60
2017-09-24T18:59:49.390Z,40.63
2017-09-24T19:02:16.895Z,34.63
2017-09-24T19:04:44.404Z,30.53
2017-09-24T19:07:12.712Z,41.10
2017-09-24T19:09:40.205Z,34.93
2017-09-24T19:12:08.483Z,39.17
2017-09-24T19:14:36.057Z,37.27
2017-09-24T19:17:03.574Z,35.83
2017-09-24T19:19:31.111Z,33.47
2017-09-24T19:21:59.406Z,30.93
2017-09-24T19:24:26.999Z,28.17
2017-09-24T19:26:54.608Z,34.33
2017-09-24T19:29:22.140Z,30.23
2017-09-24T19:31:49.633Z,37.30
2017-09-24T19:34:17.161Z,35.27
2017-09-24T19:36:44.712Z,30.83
2017-09-24T19:39:12.217Z,40.77
2017-09-24T19:41:39.738Z,30.23
2017-09-24T19:44:07.306Z,32.97
2017-09-24T19:46:35.577Z,30.27
2017-09-24T19:49:03.093Z,27.40
2017-09-24T19:51:30.627Z,32.90
2017-09-24T19:53:58.149Z,32.17
2017-09-24T19:56:26.777Z,36.43
2017-09-24T19:58:54.285Z,29.70
2017-09-24T20:01:21.831Z,35.93
2017-09-24T20:03:49.343Z,38.53
2017-09-24T20:06:17.728Z,36.63
2017-09-24T20:08:45.310Z,34.17
2017-09-24T20:11:12.807Z,31.73
2017-09-24T20:13:41.084Z,33.50
2017-09-24T20:16:08.618Z,38.57
2017-09-24T20:18:36.133Z,41.57
2017-09-24T20:21:03.628Z,35.93
2017-09-24T20:23:31.230Z,40.40
2017-09-24T20:25:58.734Z,36.90
2017-09-24T20:28:26.262Z,35.87
2017-09-24T20:30:53.760Z,36.37
2017-09-24T20:33:21.291Z,33.00
2017-09-24T20:35:49.613Z,34.17
2017-09-24T20:38:17.117Z,41.93
2017-09-24T20:40:45.401Z,40.33
2017-09-24T20:43:12.901Z,36.33
2017-09-24T20:45:40.451Z,34.13
2017-09-24T20:48:07.957Z,48.03
2017-09-24T20:50:35.468Z,38.03
2017-09-24T20:53:03.002Z,33.23
2017-09-24T20:55:31.278Z,37.23
2017-09-24T20:57:58.956Z,32.43
2017-09-24T21:00:26.461Z,29.70
2017-09-24T21:02:53.959Z,34.03
2017-09-24T21:05:21.489Z,33.53
2017-09-24T21:07:49.004Z,35.93
2017-09-24T21:10:16.561Z,48.43
2017-09-24T21:12:44.058Z,36.80
2017-09-24T21:15:12.333Z,34.53
2017-09-24T21:17:40.617Z,31.13
2017-09-24T21:20:08.139Z,34.83
2017-09-24T21:22:36.402Z,32.40
2017-09-24T21:25:04.694Z,34.90
2017-09-24T21:27:32.232Z,35.40
2017-09-24T21:29:59.737Z,35.30
2017-09-24T21:32:27.997Z,38.00
2017-09-24T21:34:56.279Z,37.50
2017-09-24T21:37:23.803Z,33.60
2017-09-24T21:39:52.067Z,39.77
2017-09-24T21:42:20.365Z,35.43
2017-09-24T21:44:47.873Z,36.20
2017-09-24T21:47:16.178Z,31.80
2017-09-24T21:49:43.684Z,34.53
2017-09-24T21:52:11.985Z,31.63
2017-09-24T21:54:39.491Z,36.97
2017-09-24T21:57:06.993Z,37.20
2017-09-24T21:59:34.532Z,39.20
2017-09-24T22:02:02.034Z,39.63
2017-09-24T22:04:29.522Z,34.40
2017-09-24T22:06:57.066Z,36.10
2017-09-24T22:09:24.557Z,34.10
2017-09-24T22:11:52.093Z,30.87
2017-09-24T22:14:20.349Z,33.13
2017-09-24T22:16:47.853Z,36.33
2017-09-24T22:19:15.377Z,40.67
2017-09-24T22:21:42.877Z,31.70
2017-09-24T22:24:11.178Z,29.60
2017-09-24T22:26:38.672Z,30.23
2017-09-24T22:29:06.941Z,32.50
2017-09-24T22:31:35.229Z,39.33
2017-09-24T22:34:02.739Z,32.97
2017-09-24T22:36:31.033Z,30.33
2017-09-24T22:38:58.541Z,34.77
2017-09-24T22:41:27.666Z,28.07
2017-09-24T22:43:55.173Z,31.70
2017-09-24T22:46:23.464Z,31.63
2017-09-24T22:48:51.005Z,34.73
2017-09-24T22:51:18.505Z,30.63
2017-09-24T22:53:46.012Z,29.80
2017-09-24T22:56:13.537Z,36.13
2017-09-24T22:58:41.041Z,35.37
2017-09-24T23:01:09.346Z,31.87
2017-09-24T23:03:36.850Z,27.40
2017-09-24T23:06:05.121Z,31.47
2017-09-24T23:08:33.430Z,32.03
2017-09-24T23:11:00.925Z,33.53
2017-09-24T23:13:29.179Z,31.03
2017-09-24T23:15:57.481Z,29.33
2017-09-24T23:18:24.983Z,30.57
2017-09-24T23:20:53.251Z,34.47
2017-09-24T23:23:21.559Z,26.40
2017-09-24T23:25:49.049Z,31.63
2017-09-24T23:28:17.324Z,32.20
2017-09-24T23:30:44.860Z,30.50
2017-09-24T23:33:13.125Z,26.90
2017-09-24T23:35:41.410Z,21.30
2017-09-24T23:38:08.931Z,32.73
2017-09-24T23:40:36.434Z,31.97
2017-09-24T23:43:03.974Z,35.97
2017-09-24T23:45:31.470Z,40.20
2017-09-24T23:47:58.966Z,32.47
2017-09-24T23:50:26.492Z,29.30
2017-09-24T23:52:53.998Z,31.37
2017-09-24T23:55:21.535Z,33.50
2017-09-24T23:57:49.034Z,34.43
